Antares — DFJQ — position and weather

sailwx.info

Track history (hours):
 
Tides and Currents Weather Stations Pressure Air Temp Water Temp Dewpoint Dewpoint Depression Visibility Wind Speed Wind Dir Waves Ship Positions

Antares

Last reported at 2016-Dec-07 15:32 UTC. Time now 2016-Dec-07 16:27 UTC.
Position N 50°47' E 001°24'.

Length 79 m; draft 5.6 m.

Type: Ship. MMSI: 218777000.

Date/timePositionNaut miles runAvg speedWind from/ knotsBaromVisibWave heightAir tempDewpointWater temp
2016-Dec-07 15:32N 50°47' E 001°24'5510.2
2016-Dec-07 10:06N 50°18' E 000°09'5 9.1
2016-Dec-07 09:33N 50°16' E 000°02'9 9.5
2016-Dec-07 08:33N 50°07' E 000°00'9 9.3
2016-Dec-07 07:33N 49°57' W 000°02'10 9.6
2016-Dec-07 06:33N 49°48' W 000°02'10 9.7
2016-Dec-07 05:33N 49°38' W 000°03'9 9.1
2016-Dec-07 04:33N 49°30' E 000°03'5 5.0
2016-Dec-07 03:33N 49°29' E 000°10'3 2.6
2016-Dec-07 02:31N 49°28' E 000°15'0 0.0
2016-Dec-07 01:31N 49°28' E 000°15'0 0.0
2016-Dec-07 00:31N 49°28' E 000°15'0 0.0
2016-Dec-06 23:31N 49°28' E 000°15'0 0.0
2016-Dec-06 22:31N 49°28' E 000°15'0 0.0
2016-Dec-06 21:31N 49°28' E 000°15'0 0.0
2016-Dec-06 20:31N 49°28' E 000°15'0 0.0
2016-Dec-06 18:31N 49°28' E 000°15'0 0.0
2016-Dec-06 17:28N 49°28' E 000°15'0 0.0
2016-Dec-06 16:31N 49°28' E 000°15'0 0.0
2016-Dec-06 15:31N 49°28' E 000°15'0 0.0
2016-Dec-06 14:31N 49°28' E 000°15'0 0.0
2016-Dec-06 13:31N 49°28' E 000°15'0 0.0
2016-Dec-06 12:31N 49°28' E 000°15'0 0.0
2016-Dec-06 11:31N 49°28' E 000°15'0 0.5
2016-Dec-06 10:33N 49°28' E 000°14'3 3.0
2016-Dec-06 09:33N 49°28' E 000°09'9 9.2
2016-Dec-06 08:34N 49°30' W 000°04'7 6.5
2016-Dec-06 07:33N 49°37' W 000°05'6 5.6
2016-Dec-06 06:33N 49°42' W 000°02'7 7.1
2016-Dec-06 05:33N 49°49' W 000°03'7 7.0
2016-Dec-06 04:33N 49°56' W 000°03'8 8.4
2016-Dec-06 03:33N 50°05' W 000°04'10 9.8
2016-Dec-06 02:33N 50°15' W 000°04'10 9.8
2016-Dec-06 01:32N 50°25' W 000°05'10 9.8
2016-Dec-06 00:33N 50°34' W 000°07'10 9.7
2016-Dec-05 23:33N 50°43' W 000°11'4 4.0
2016-Dec-05 22:33N 50°47' W 000°14'0 0.1
2016-Dec-05 21:33N 50°47' W 000°15'0 0.0
2016-Dec-05 20:33N 50°47' W 000°15'0 0.0
2016-Dec-05 19:33N 50°47' W 000°15'0 0.0
2016-Dec-05 18:33N 50°47' W 000°15'0 0.0
2016-Dec-05 17:33N 50°47' W 000°15'0 0.0
2016-Dec-05 16:33N 50°47' W 000°15'0 0.0
2016-Dec-05 15:33N 50°47' W 000°15'0 0.0
2016-Dec-05 14:33N 50°47' W 000°15'0 0.0
2016-Dec-05 13:33N 50°47' W 000°15'0 0.0
2016-Dec-05 12:33N 50°47' W 000°15'0 0.0
2016-Dec-05 11:33N 50°47' W 000°15'0 0.0
2016-Dec-05 10:33N 50°47' W 000°15'0 0.0
2016-Dec-05 09:33N 50°47' W 000°15'0 0.0
2016-Dec-05 08:33N 50°47' W 000°15'0 0.0
2016-Dec-05 07:33N 50°47' W 000°15'0 0.0
2016-Dec-05 06:33N 50°47' W 000°15'0 0.0
2016-Dec-05 05:33N 50°47' W 000°15'0 0.0
2016-Dec-05 04:33N 50°47' W 000°15'0 0.0
2016-Dec-05 03:33N 50°47' W 000°15'3 3.1
2016-Dec-05 02:33N 50°50' W 000°14'1 0.5
2016-Dec-05 01:33N 50°50' W 000°13'0 0.0
2016-Dec-05 00:33N 50°50' W 000°13'0 0.0
2016-Dec-04 23:33N 50°50' W 000°13'0 0.0
2016-Dec-04 22:33N 50°50' W 000°13'0 0.0
2016-Dec-04 21:33N 50°50' W 000°13'0 0.0
2016-Dec-04 20:33N 50°50' W 000°13'0 0.0
2016-Dec-04 19:33N 50°50' W 000°13'0 0.0
2016-Dec-04 18:33N 50°50' W 000°13'0 0.0
2016-Dec-04 17:33N 50°50' W 000°13'0 0.0
2016-Dec-04 16:33N 50°50' W 000°13'0 0.0
2016-Dec-04 15:33N 50°50' W 000°13'0 0.0
2016-Dec-04 14:33N 50°50' W 000°13'1 0.6
2016-Dec-04 13:33N 50°50' W 000°14'3 3.0
2016-Dec-04 12:34N 50°47' W 000°14'6 5.5
2016-Dec-04 11:33N 50°44' W 000°07'9 8.3
2016-Dec-04 10:31N 50°39' E 000°04'8 8.6
2016-Dec-04 09:34N 50°35' E 000°16'4210.4
2016-Dec-04 05:33N 50°57' E 001°13'9 9.3
2016-Dec-04 04:34N 51°03' E 001°24'8 8.4
2016-Dec-04 03:34N 51°08' E 001°34'8 7.9
2016-Dec-04 02:34N 51°13' E 001°44'8 8.4
2016-Dec-04 01:34N 51°21' E 001°50'1010.0
2016-Dec-04 00:34N 51°28' E 002°00'1111.1
2016-Dec-03 23:34N 51°37' E 002°12'58 9.7
2016-Dec-03 17:33N 52°04' E 003°36'9 8.8
2016-Dec-03 16:34N 52°03' E 003°50'8 8.0
2016-Dec-03 15:33N 51°60' E 004°02'9 9.5
2016-Dec-03 14:33N 51°55' E 004°15'4 4.0
2016-Dec-03 13:32N 51°53' E 004°21'0 0.0
2016-Dec-03 12:31N 51°53' E 004°21'0 0.0
2016-Dec-03 11:32N 51°53' E 004°21'0 0.0
2016-Dec-03 10:32N 51°53' E 004°21'0 0.0
2016-Dec-03 09:31N 51°53' E 004°21'0 0.0
2016-Dec-03 08:32N 51°53' E 004°21'0 0.0
2016-Dec-03 07:31N 51°53' E 004°21'0 0.0
2016-Dec-03 06:32N 51°53' E 004°21'0 0.0
2016-Dec-03 05:32N 51°53' E 004°21'0 0.0
2016-Dec-03 04:32N 51°53' E 004°21'0 0.0
2016-Dec-03 03:32N 51°53' E 004°21'0 0.0
2016-Dec-03 02:32N 51°53' E 004°21'0 0.0
2016-Dec-03 01:31N 51°53' E 004°21'0 0.0
2016-Dec-03 00:25N 51°53' E 004°21'0 0.0
2016-Dec-02 23:32N 51°53' E 004°21'0 0.0
2016-Dec-02 22:28N 51°53' E 004°21'0 0.0
2016-Dec-02 21:31N 51°53' E 004°21'0 0.0
2016-Dec-02 20:32N 51°53' E 004°21'0 0.0
2016-Dec-02 19:32N 51°53' E 004°21'0 0.0
2016-Dec-02 18:31N 51°53' E 004°21'0 0.0
2016-Dec-02 17:32N 51°53' E 004°21'0 0.0
2016-Dec-02 16:31N 51°53' E 004°21'0 0.1
2016-Dec-02 15:33N 51°53' E 004°21'7 6.7
2016-Dec-02 14:33N 51°56' E 004°12'9 9.0
2016-Dec-02 13:33N 52°00' E 003°58'8 7.7
2016-Dec-02 12:33N 51°57' E 003°46'0 0.2
2016-Dec-02 11:33N 51°57' E 003°46'0 0.0
2016-Dec-02 09:33N 51°57' E 003°46'0 0.0
2016-Dec-02 08:27N 51°57' E 003°46'0 0.0
2016-Dec-02 07:33N 51°57' E 003°46'0 0.0
2016-Dec-02 06:24N 51°57' E 003°46'0 0.0
2016-Dec-02 05:33N 51°57' E 003°46'0 0.1
2016-Dec-02 04:30N 51°57' E 003°47'0 0.0
2016-Dec-02 03:32N 51°57' E 003°47'0 0.0
2016-Dec-02 02:29N 51°57' E 003°47'0 0.1
2016-Dec-02 01:28N 51°57' E 003°46'0 0.1
2016-Dec-02 00:33N 51°57' E 003°46'9 9.0
2016-Dec-01 23:33N 52°06' E 003°46'1111.0
2016-Dec-01 22:33N 52°17' E 003°47'2311.3
2016-Dec-01 20:31N 52°39' E 003°54'1210.6
2016-Dec-01 19:24N 52°51' E 003°59'8 9.0
2016-Dec-01 18:33N 52°58' E 004°03'46 8.4
2016-Dec-01 13:06N 53°32' E 004°54'5 9.0
2016-Dec-01 12:33N 53°34' E 005°02'9 8.9
2016-Dec-01 11:33N 53°37' E 005°16'8 8.0
2016-Dec-01 10:34N 53°39' E 005°29'7 7.4
2016-Dec-01 09:33N 53°41' E 005°41'7 6.9
2016-Dec-01 08:33N 53°43' E 005°52'7 6.6
2016-Dec-01 07:33N 53°45' E 006°02'68 7.2
2016-Nov-30 22:10N 54°01' E 007°54'3 5.2
2016-Nov-30 21:30N 54°01' E 008°00'5 5.0
2016-Nov-30 20:33N 54°01' E 008°08'5 5.2
2016-Nov-30 19:33N 54°01' E 008°17'9 9.1
2016-Nov-30 18:33N 53°58' E 008°32'9 8.8
2016-Nov-30 17:34N 53°52' E 008°43'1 0.7
2016-Nov-30 16:33N 53°51' E 008°43'0 0.0
2016-Nov-30 15:33N 53°51' E 008°43'0 0.0
2016-Nov-30 14:33N 53°51' E 008°43'0 0.0
2016-Nov-30 13:33N 53°51' E 008°43'0 0.0
2016-Nov-30 12:33N 53°51' E 008°43'0 0.0
2016-Nov-30 11:30N 53°51' E 008°43'0 0.0
2016-Nov-30 10:33N 53°51' E 008°43'0 0.0
2016-Nov-30 09:33N 53°51' E 008°43'0 0.0
2016-Nov-30 08:27N 53°51' E 008°43'0 0.0
2016-Nov-30 07:33N 53°51' E 008°43'0 0.0
2016-Nov-30 06:30N 53°51' E 008°43'0 0.0
2016-Nov-30 05:33N 53°51' E 008°43'0 0.0
2016-Nov-30 04:33N 53°51' E 008°43'0 0.0
2016-Nov-30 03:33N 53°51' E 008°43'0 0.0
2016-Nov-30 02:30N 53°51' E 008°43'0 0.0
2016-Nov-30 01:33N 53°51' E 008°43'0 0.0
2016-Nov-30 00:33N 53°51' E 008°43'0 0.0
2016-Nov-29 23:33N 53°51' E 008°43'0 0.0
2016-Nov-29 22:33N 53°51' E 008°43'0 0.0
2016-Nov-29 21:33N 53°51' E 008°43'0 0.0
2016-Nov-29 20:33N 53°51' E 008°43'0 0.0
2016-Nov-29 19:33N 53°51' E 008°43'0 0.0
2016-Nov-29 18:33N 53°51' E 008°43'0 0.0
2016-Nov-29 17:33N 53°51' E 008°43'0 0.0
2016-Nov-29 16:33N 53°51' E 008°43'0 0.0
2016-Nov-29 15:33N 53°51' E 008°43'0 0.0
2016-Nov-29 14:33N 53°51' E 008°43'0 0.0
2016-Nov-29 13:33N 53°51' E 008°43'0 0.0
2016-Nov-29 12:33N 53°51' E 008°43'0 0.0
2016-Nov-29 11:33N 53°51' E 008°43'0 0.0
2016-Nov-29 10:33N 53°51' E 008°43'0 0.0
2016-Nov-29 09:33N 53°51' E 008°43'0 0.0
2016-Nov-29 08:33N 53°51' E 008°43'0 0.0
2016-Nov-29 07:33N 53°51' E 008°43'0 0.0
2016-Nov-29 06:33N 53°51' E 008°43'0 0.0
2016-Nov-29 05:33N 53°51' E 008°43'0 0.0
2016-Nov-29 04:30N 53°51' E 008°43'0 0.0
2016-Nov-29 03:33N 53°51' E 008°43'0 0.0
2016-Nov-29 02:33N 53°51' E 008°43'0 0.0
2016-Nov-29 01:33N 53°51' E 008°43'0 0.0
2016-Nov-29 00:33N 53°51' E 008°43'0 0.0
2016-Nov-28 23:33N 53°51' E 008°43'0 0.0
2016-Nov-28 22:24N 53°51' E 008°43'0 0.0
2016-Nov-28 21:33N 53°51' E 008°43'0 0.0
2016-Nov-28 20:33N 53°51' E 008°43'0 0.0
2016-Nov-28 19:33N 53°51' E 008°43'0 0.0
2016-Nov-28 18:33N 53°51' E 008°43'0 0.0
2016-Nov-28 17:30N 53°51' E 008°43'0 0.0
2016-Nov-28 16:33N 53°51' E 008°43'0 0.0
2016-Nov-28 15:33N 53°51' E 008°43'0 0.0
2016-Nov-28 14:33N 53°51' E 008°43'0 0.0
2016-Nov-28 13:33N 53°51' E 008°43'0 0.0
2016-Nov-28 12:33N 53°51' E 008°43'0 0.2
2016-Nov-28 11:32N 53°51' E 008°43'0 0.3
2016-Nov-28 10:31N 53°52' E 008°43'0 0.0
2016-Nov-28 09:28N 53°52' E 008°43'0 0.0
2016-Nov-28 08:31N 53°52' E 008°43'0 0.0
2016-Nov-28 07:31N 53°52' E 008°43'0 0.0
2016-Nov-28 06:31N 53°52' E 008°43'0 0.0
2016-Nov-28 05:31N 53°52' E 008°43'0 0.0
2016-Nov-28 04:29N 53°52' E 008°43'0 0.0
2016-Nov-28 03:31N 53°52' E 008°43'0 0.0
2016-Nov-28 02:31N 53°52' E 008°43'0 0.0
2016-Nov-28 01:31N 53°52' E 008°43'0 0.0
2016-Nov-28 00:31N 53°52' E 008°43'0 0.0
2016-Nov-27 23:31N 53°52' E 008°43'0 0.0
2016-Nov-27 22:31N 53°52' E 008°43'0 0.0
2016-Nov-27 21:31N 53°52' E 008°43'0 0.0
2016-Nov-27 20:28N 53°52' E 008°43'0 0.0
2016-Nov-27 19:31N 53°52' E 008°43'0 0.0
2016-Nov-27 18:31N 53°52' E 008°43'0 0.0
2016-Nov-27 17:31N 53°52' E 008°43'0 0.0
2016-Nov-27 16:31N 53°52' E 008°43'  
Track history (hours):
 
Tides and Currents Weather Stations Pressure Air Temp Water Temp Dewpoint Dewpoint Depression Visibility Wind Speed Wind Dir Waves Ship Positions

Antares

Last reported at 2016-Dec-07 15:32 UTC. Time now 2016-Dec-07 16:27 UTC.
Position N 50°47' E 001°24'.

Length 79 m; draft 5.6 m.

Type: Ship. MMSI: 218777000.

Date/timePositionNaut miles runAvg speedWind from/ knotsBaromVisibWave heightAir tempDewpointWater temp
2016-Dec-07 15:32N 50°47' E 001°24'5510.2
2016-Dec-07 10:06N 50°18' E 000°09'5 9.1
2016-Dec-07 09:33N 50°16' E 000°02'9 9.5
2016-Dec-07 08:33N 50°07' E 000°00'9 9.3
2016-Dec-07 07:33N 49°57' W 000°02'10 9.6
2016-Dec-07 06:33N 49°48' W 000°02'10 9.7
2016-Dec-07 05:33N 49°38' W 000°03'9 9.1
2016-Dec-07 04:33N 49°30' E 000°03'5 5.0
2016-Dec-07 03:33N 49°29' E 000°10'3 2.6
2016-Dec-07 02:31N 49°28' E 000°15'0 0.0
2016-Dec-07 01:31N 49°28' E 000°15'0 0.0
2016-Dec-07 00:31N 49°28' E 000°15'0 0.0
2016-Dec-06 23:31N 49°28' E 000°15'0 0.0
2016-Dec-06 22:31N 49°28' E 000°15'0 0.0
2016-Dec-06 21:31N 49°28' E 000°15'0 0.0
2016-Dec-06 20:31N 49°28' E 000°15'0 0.0
2016-Dec-06 18:31N 49°28' E 000°15'0 0.0
2016-Dec-06 17:28N 49°28' E 000°15'0 0.0
2016-Dec-06 16:31N 49°28' E 000°15'0 0.0
2016-Dec-06 15:31N 49°28' E 000°15'0 0.0
2016-Dec-06 14:31N 49°28' E 000°15'0 0.0
2016-Dec-06 13:31N 49°28' E 000°15'0 0.0
2016-Dec-06 12:31N 49°28' E 000°15'0 0.0
2016-Dec-06 11:31N 49°28' E 000°15'0 0.5
2016-Dec-06 10:33N 49°28' E 000°14'3 3.0
2016-Dec-06 09:33N 49°28' E 000°09'9 9.2
2016-Dec-06 08:34N 49°30' W 000°04'7 6.5
2016-Dec-06 07:33N 49°37' W 000°05'6 5.6
2016-Dec-06 06:33N 49°42' W 000°02'7 7.1
2016-Dec-06 05:33N 49°49' W 000°03'7 7.0
2016-Dec-06 04:33N 49°56' W 000°03'8 8.4
2016-Dec-06 03:33N 50°05' W 000°04'10 9.8
2016-Dec-06 02:33N 50°15' W 000°04'10 9.8
2016-Dec-06 01:32N 50°25' W 000°05'10 9.8
2016-Dec-06 00:33N 50°34' W 000°07'10 9.7
2016-Dec-05 23:33N 50°43' W 000°11'4 4.0
2016-Dec-05 22:33N 50°47' W 000°14'0 0.1
2016-Dec-05 21:33N 50°47' W 000°15'0 0.0
2016-Dec-05 20:33N 50°47' W 000°15'0 0.0
2016-Dec-05 19:33N 50°47' W 000°15'0 0.0
2016-Dec-05 18:33N 50°47' W 000°15'0 0.0
2016-Dec-05 17:33N 50°47' W 000°15'0 0.0
2016-Dec-05 16:33N 50°47' W 000°15'0 0.0
2016-Dec-05 15:33N 50°47' W 000°15'0 0.0
2016-Dec-05 14:33N 50°47' W 000°15'0 0.0
2016-Dec-05 13:33N 50°47' W 000°15'0 0.0
2016-Dec-05 12:33N 50°47' W 000°15'0 0.0
2016-Dec-05 11:33N 50°47' W 000°15'0 0.0
2016-Dec-05 10:33N 50°47' W 000°15'0 0.0
2016-Dec-05 09:33N 50°47' W 000°15'0 0.0
2016-Dec-05 08:33N 50°47' W 000°15'0 0.0
2016-Dec-05 07:33N 50°47' W 000°15'0 0.0
2016-Dec-05 06:33N 50°47' W 000°15'0 0.0
2016-Dec-05 05:33N 50°47' W 000°15'0 0.0
2016-Dec-05 04:33N 50°47' W 000°15'0 0.0
2016-Dec-05 03:33N 50°47' W 000°15'3 3.1
2016-Dec-05 02:33N 50°50' W 000°14'1 0.5
2016-Dec-05 01:33N 50°50' W 000°13'0 0.0
2016-Dec-05 00:33N 50°50' W 000°13'0 0.0
2016-Dec-04 23:33N 50°50' W 000°13'0 0.0
2016-Dec-04 22:33N 50°50' W 000°13'0 0.0
2016-Dec-04 21:33N 50°50' W 000°13'0 0.0
2016-Dec-04 20:33N 50°50' W 000°13'0 0.0
2016-Dec-04 19:33N 50°50' W 000°13'0 0.0
2016-Dec-04 18:33N 50°50' W 000°13'0 0.0
2016-Dec-04 17:33N 50°50' W 000°13'0 0.0
2016-Dec-04 16:33N 50°50' W 000°13'0 0.0
2016-Dec-04 15:33N 50°50' W 000°13'0 0.0
2016-Dec-04 14:33N 50°50' W 000°13'1 0.6
2016-Dec-04 13:33N 50°50' W 000°14'3 3.0
2016-Dec-04 12:34N 50°47' W 000°14'6 5.5
2016-Dec-04 11:33N 50°44' W 000°07'9 8.3
2016-Dec-04 10:31N 50°39' E 000°04'8 8.6
2016-Dec-04 09:34N 50°35' E 000°16'4210.4
2016-Dec-04 05:33N 50°57' E 001°13'9 9.3
2016-Dec-04 04:34N 51°03' E 001°24'8 8.4
2016-Dec-04 03:34N 51°08' E 001°34'8 7.9
2016-Dec-04 02:34N 51°13' E 001°44'8 8.4
2016-Dec-04 01:34N 51°21' E 001°50'1010.0
2016-Dec-04 00:34N 51°28' E 002°00'1111.1
2016-Dec-03 23:34N 51°37' E 002°12'58 9.7
2016-Dec-03 17:33N 52°04' E 003°36'9 8.8
2016-Dec-03 16:34N 52°03' E 003°50'8 8.0
2016-Dec-03 15:33N 51°60' E 004°02'9 9.5
2016-Dec-03 14:33N 51°55' E 004°15'4 4.0
2016-Dec-03 13:32N 51°53' E 004°21'0 0.0
2016-Dec-03 12:31N 51°53' E 004°21'0 0.0
2016-Dec-03 11:32N 51°53' E 004°21'0 0.0
2016-Dec-03 10:32N 51°53' E 004°21'0 0.0
2016-Dec-03 09:31N 51°53' E 004°21'0 0.0
2016-Dec-03 08:32N 51°53' E 004°21'0 0.0
2016-Dec-03 07:31N 51°53' E 004°21'0 0.0
2016-Dec-03 06:32N 51°53' E 004°21'0 0.0
2016-Dec-03 05:32N 51°53' E 004°21'0 0.0
2016-Dec-03 04:32N 51°53' E 004°21'0 0.0
2016-Dec-03 03:32N 51°53' E 004°21'0 0.0
2016-Dec-03 02:32N 51°53' E 004°21'0 0.0
2016-Dec-03 01:31N 51°53' E 004°21'0 0.0
2016-Dec-03 00:25N 51°53' E 004°21'0 0.0
2016-Dec-02 23:32N 51°53' E 004°21'0 0.0
2016-Dec-02 22:28N 51°53' E 004°21'0 0.0
2016-Dec-02 21:31N 51°53' E 004°21'0 0.0
2016-Dec-02 20:32N 51°53' E 004°21'0 0.0
2016-Dec-02 19:32N 51°53' E 004°21'0 0.0
2016-Dec-02 18:31N 51°53' E 004°21'0 0.0
2016-Dec-02 17:32N 51°53' E 004°21'0 0.0
2016-Dec-02 16:31N 51°53' E 004°21'0 0.1
2016-Dec-02 15:33N 51°53' E 004°21'7 6.7
2016-Dec-02 14:33N 51°56' E 004°12'9 9.0
2016-Dec-02 13:33N 52°00' E 003°58'8 7.7
2016-Dec-02 12:33N 51°57' E 003°46'0 0.2
2016-Dec-02 11:33N 51°57' E 003°46'0 0.0
2016-Dec-02 09:33N 51°57' E 003°46'0 0.0
2016-Dec-02 08:27N 51°57' E 003°46'0 0.0
2016-Dec-02 07:33N 51°57' E 003°46'0 0.0
2016-Dec-02 06:24N 51°57' E 003°46'0 0.0
2016-Dec-02 05:33N 51°57' E 003°46'0 0.1
2016-Dec-02 04:30N 51°57' E 003°47'0 0.0
2016-Dec-02 03:32N 51°57' E 003°47'0 0.0
2016-Dec-02 02:29N 51°57' E 003°47'0 0.1
2016-Dec-02 01:28N 51°57' E 003°46'0 0.1
2016-Dec-02 00:33N 51°57' E 003°46'9 9.0
2016-Dec-01 23:33N 52°06' E 003°46'1111.0
2016-Dec-01 22:33N 52°17' E 003°47'2311.3
2016-Dec-01 20:31N 52°39' E 003°54'1210.6
2016-Dec-01 19:24N 52°51' E 003°59'8 9.0
2016-Dec-01 18:33N 52°58' E 004°03'46 8.4
2016-Dec-01 13:06N 53°32' E 004°54'5 9.0
2016-Dec-01 12:33N 53°34' E 005°02'9 8.9
2016-Dec-01 11:33N 53°37' E 005°16'8 8.0
2016-Dec-01 10:34N 53°39' E 005°29'7 7.4
2016-Dec-01 09:33N 53°41' E 005°41'7 6.9
2016-Dec-01 08:33N 53°43' E 005°52'7 6.6
2016-Dec-01 07:33N 53°45' E 006°02'68 7.2
2016-Nov-30 22:10N 54°01' E 007°54'3 5.2
2016-Nov-30 21:30N 54°01' E 008°00'5 5.0
2016-Nov-30 20:33N 54°01' E 008°08'5 5.2
2016-Nov-30 19:33N 54°01' E 008°17'9 9.1
2016-Nov-30 18:33N 53°58' E 008°32'9 8.8
2016-Nov-30 17:34N 53°52' E 008°43'1 0.7
2016-Nov-30 16:33N 53°51' E 008°43'0 0.0
2016-Nov-30 15:33N 53°51' E 008°43'0 0.0
2016-Nov-30 14:33N 53°51' E 008°43'0 0.0
2016-Nov-30 13:33N 53°51' E 008°43'0 0.0
2016-Nov-30 12:33N 53°51' E 008°43'0 0.0
2016-Nov-30 11:30N 53°51' E 008°43'0 0.0
2016-Nov-30 10:33N 53°51' E 008°43'0 0.0
2016-Nov-30 09:33N 53°51' E 008°43'0 0.0
2016-Nov-30 08:27N 53°51' E 008°43'0 0.0
2016-Nov-30 07:33N 53°51' E 008°43'0 0.0
2016-Nov-30 06:30N 53°51' E 008°43'0 0.0
2016-Nov-30 05:33N 53°51' E 008°43'0 0.0
2016-Nov-30 04:33N 53°51' E 008°43'0 0.0
2016-Nov-30 03:33N 53°51' E 008°43'0 0.0
2016-Nov-30 02:30N 53°51' E 008°43'0 0.0
2016-Nov-30 01:33N 53°51' E 008°43'0 0.0
2016-Nov-30 00:33N 53°51' E 008°43'0 0.0
2016-Nov-29 23:33N 53°51' E 008°43'0 0.0
2016-Nov-29 22:33N 53°51' E 008°43'0 0.0
2016-Nov-29 21:33N 53°51' E 008°43'0 0.0
2016-Nov-29 20:33N 53°51' E 008°43'0 0.0
2016-Nov-29 19:33N 53°51' E 008°43'0 0.0
2016-Nov-29 18:33N 53°51' E 008°43'0 0.0
2016-Nov-29 17:33N 53°51' E 008°43'0 0.0
2016-Nov-29 16:33N 53°51' E 008°43'0 0.0
2016-Nov-29 15:33N 53°51' E 008°43'0 0.0
2016-Nov-29 14:33N 53°51' E 008°43'0 0.0
2016-Nov-29 13:33N 53°51' E 008°43'0 0.0
2016-Nov-29 12:33N 53°51' E 008°43'0 0.0
2016-Nov-29 11:33N 53°51' E 008°43'0 0.0
2016-Nov-29 10:33N 53°51' E 008°43'0 0.0
2016-Nov-29 09:33N 53°51' E 008°43'0 0.0
2016-Nov-29 08:33N 53°51' E 008°43'0 0.0
2016-Nov-29 07:33N 53°51' E 008°43'0 0.0
2016-Nov-29 06:33N 53°51' E 008°43'0 0.0
2016-Nov-29 05:33N 53°51' E 008°43'0 0.0
2016-Nov-29 04:30N 53°51' E 008°43'0 0.0
2016-Nov-29 03:33N 53°51' E 008°43'0 0.0
2016-Nov-29 02:33N 53°51' E 008°43'0 0.0
2016-Nov-29 01:33N 53°51' E 008°43'0 0.0
2016-Nov-29 00:33N 53°51' E 008°43'0 0.0
2016-Nov-28 23:33N 53°51' E 008°43'0 0.0
2016-Nov-28 22:24N 53°51' E 008°43'0 0.0
2016-Nov-28 21:33N 53°51' E 008°43'0 0.0
2016-Nov-28 20:33N 53°51' E 008°43'0 0.0
2016-Nov-28 19:33N 53°51' E 008°43'0 0.0
2016-Nov-28 18:33N 53°51' E 008°43'0 0.0
2016-Nov-28 17:30N 53°51' E 008°43'0 0.0
2016-Nov-28 16:33N 53°51' E 008°43'0 0.0
2016-Nov-28 15:33N 53°51' E 008°43'0 0.0
2016-Nov-28 14:33N 53°51' E 008°43'0 0.0
2016-Nov-28 13:33N 53°51' E 008°43'0 0.0
2016-Nov-28 12:33N 53°51' E 008°43'0 0.2
2016-Nov-28 11:32N 53°51' E 008°43'0 0.3
2016-Nov-28 10:31N 53°52' E 008°43'0 0.0
2016-Nov-28 09:28N 53°52' E 008°43'0 0.0
2016-Nov-28 08:31N 53°52' E 008°43'0 0.0
2016-Nov-28 07:31N 53°52' E 008°43'0 0.0
2016-Nov-28 06:31N 53°52' E 008°43'0 0.0
2016-Nov-28 05:31N 53°52' E 008°43'0 0.0
2016-Nov-28 04:29N 53°52' E 008°43'0 0.0
2016-Nov-28 03:31N 53°52' E 008°43'0 0.0
2016-Nov-28 02:31N 53°52' E 008°43'0 0.0
2016-Nov-28 01:31N 53°52' E 008°43'0 0.0
2016-Nov-28 00:31N 53°52' E 008°43'0 0.0
2016-Nov-27 23:31N 53°52' E 008°43'0 0.0
2016-Nov-27 22:31N 53°52' E 008°43'0 0.0
2016-Nov-27 21:31N 53°52' E 008°43'0 0.0
2016-Nov-27 20:28N 53°52' E 008°43'0 0.0
2016-Nov-27 19:31N 53°52' E 008°43'0 0.0
2016-Nov-27 18:31N 53°52' E 008°43'0 0.0
2016-Nov-27 17:31N 53°52' E 008°43'0 0.0
2016-Nov-27 16:31N 53°52' E 008°43'  

Dump ship's entire track history